createdAt,value
2023-02-27T00:00:56.291Z,100254.25
2023-02-27T00:04:00.403Z,100249.22
2023-02-27T00:07:03.342Z,100258.53
2023-02-27T00:10:07.943Z,100251.56
2023-02-27T00:13:10.828Z,100255.97
2023-02-27T00:16:14.116Z,100257.44
2023-02-27T00:19:16.918Z,100256.63
2023-02-27T00:22:19.694Z,100264.06
2023-02-27T00:25:22.581Z,100266.50
2023-02-27T00:28:25.436Z,100273.47
2023-02-27T00:31:28.723Z,100274.31
2023-02-27T00:34:31.824Z,100261.56
2023-02-27T00:37:34.872Z,100276.03
2023-02-27T00:40:41.874Z,100284.94
2023-02-27T00:43:44.621Z,100279.63
2023-02-27T00:46:47.574Z,100286.03
2023-02-27T00:49:50.365Z,100288.38
2023-02-27T00:52:53.389Z,100287.47
2023-02-27T00:55:57.310Z,100293.81
2023-02-27T00:59:00.401Z,100304.03
2023-02-27T01:02:03.823Z,100304.03
2023-02-27T01:05:07.294Z,100305.91
2023-02-27T01:08:10.132Z,100313.16
2023-02-27T01:11:13.024Z,100317.97
2023-02-27T01:14:15.787Z,100322.66
2023-02-27T01:17:21.577Z,100323.25
2023-02-27T01:20:24.493Z,100330.63
2023-02-27T01:23:27.304Z,100336.44
2023-02-27T01:26:30.061Z,100326.34
2023-02-27T01:29:32.931Z,100329.47
2023-02-27T01:32:38.179Z,100326.50
2023-02-27T01:35:41.006Z,100326.06
2023-02-27T01:38:43.867Z,100331.28
2023-02-27T01:41:46.857Z,100327.75
2023-02-27T01:45:02.675Z,100335.66
2023-02-27T01:48:34.687Z,100337.59
2023-02-27T01:51:42.048Z,100344.56
2023-02-27T01:54:44.895Z,100340.31
2023-02-27T01:57:49.655Z,100342.47
2023-02-27T02:00:52.876Z,100342.91
2023-02-27T02:03:58.270Z,100345.25
2023-02-27T02:07:06.195Z,100352.28
2023-02-27T02:10:12.671Z,100339.53
2023-02-27T02:13:15.917Z,100348.56
2023-02-27T02:16:27.687Z,100351.06
2023-02-27T02:19:52.233Z,100357.53
2023-02-27T02:23:32.609Z,100354.38
2023-02-27T02:26:38.049Z,100370.63
2023-02-27T02:29:52.904Z,100382.06
2023-02-27T02:33:04.657Z,100379.81
2023-02-27T02:36:22.022Z,100384.84
2023-02-27T02:39:42.023Z,100378.59
2023-02-27T02:43:26.615Z,100378.31
2023-02-27T02:46:47.874Z,100385.84
2023-02-27T02:50:01.633Z,100362.66
2023-02-27T02:53:13.385Z,100380.75
2023-02-27T02:56:28.273Z,100381.66
2023-02-27T02:59:34.304Z,100389.22
2023-02-27T03:02:48.200Z,100382.59
2023-02-27T03:06:23.396Z,100368.91
2023-02-27T03:09:34.449Z,100380.56
2023-02-27T03:12:40.988Z,100377.19
2023-02-27T03:16:07.942Z,100377.59
2023-02-27T03:19:21.310Z,100381.56
2023-02-27T03:22:47.554Z,100394.44
2023-02-27T03:25:51.821Z,100383.91
2023-02-27T03:29:01.746Z,100379.91
2023-02-27T03:32:29.599Z,100403.81
2023-02-27T03:35:38.553Z,100402.38
2023-02-27T03:38:48.116Z,100399.13
2023-02-27T03:42:07.354Z,100400.72
2023-02-27T03:45:37.570Z,100398.47
2023-02-27T03:48:44.850Z,100404.06
2023-02-27T03:51:48.167Z,100406.75
2023-02-27T03:54:58.092Z,100410.13
2023-02-27T03:58:01.118Z,100413.88
2023-02-27T04:01:04.710Z,100432.97
2023-02-27T04:04:12.546Z,100441.75
2023-02-27T04:07:55.054Z,100458.19
2023-02-27T04:11:29.924Z,100454.34
2023-02-27T04:14:38.792Z,100459.16
2023-02-27T04:18:05.884Z,100458.25
2023-02-27T04:21:18.510Z,100454.06
2023-02-27T04:24:40.357Z,100465.28
2023-02-27T04:27:51.804Z,100472.00
2023-02-27T04:31:01.089Z,100475.47
2023-02-27T04:34:29.720Z,100486.19
2023-02-27T04:37:46.684Z,100487.63
2023-02-27T04:41:00.741Z,100500.47
2023-02-27T04:44:08.276Z,100486.19
2023-02-27T04:47:14.394Z,100485.56
2023-02-27T04:50:23.070Z,100486.41
2023-02-27T04:53:31.394Z,100505.41
2023-02-27T04:56:40.915Z,100521.84
2023-02-27T04:59:48.410Z,100528.78
2023-02-27T05:03:09.403Z,100525.41
2023-02-27T05:06:15.338Z,100533.78
2023-02-27T05:09:31.691Z,100542.06
2023-02-27T05:12:34.356Z,100547.72
2023-02-27T05:15:43.831Z,100543.34
2023-02-27T05:18:47.122Z,100544.63
2023-02-27T05:22:00.536Z,100554.75
2023-02-27T05:25:31.128Z,100565.13
2023-02-27T05:28:42.324Z,100577.13
2023-02-27T05:31:54.672Z,100573.84
2023-02-27T05:34:57.468Z,100584.47
2023-02-27T05:38:09.929Z,100591.22
2023-02-27T05:41:18.237Z,100600.31
2023-02-27T05:44:25.463Z,100614.63
2023-02-27T05:47:32.141Z,100609.72
2023-02-27T05:50:37.955Z,100609.72
2023-02-27T05:53:46.300Z,100609.50
2023-02-27T05:56:52.183Z,100609.44
2023-02-27T06:00:21.431Z,100627.81
2023-02-27T06:03:25.237Z,100633.94
2023-02-27T06:06:30.474Z,100636.00
2023-02-27T06:09:34.008Z,100650.81
2023-02-27T06:12:36.821Z,100646.41
2023-02-27T06:15:39.579Z,100634.56
2023-02-27T06:18:42.434Z,100603.34
2023-02-27T06:21:45.143Z,100561.00
2023-02-27T06:24:47.870Z,100589.84
2023-02-27T06:27:50.745Z,100605.41
2023-02-27T06:30:55.437Z,100628.75
2023-02-27T06:33:58.277Z,100635.47
2023-02-27T06:37:03.855Z,100642.38
2023-02-27T06:40:11.683Z,100654.31
2023-02-27T06:43:15.637Z,100664.06
2023-02-27T06:46:18.533Z,100669.63
2023-02-27T06:49:21.499Z,100674.25
2023-02-27T06:52:24.257Z,100666.50
2023-02-27T06:55:26.960Z,100664.03
2023-02-27T06:58:29.728Z,100664.03
2023-02-27T07:01:32.793Z,100666.81
2023-02-27T07:04:35.674Z,100671.78
2023-02-27T07:07:39.319Z,100676.88
2023-02-27T07:10:47.326Z,100683.41
2023-02-27T07:13:50.211Z,100683.28
2023-02-27T07:16:54.195Z,100673.66
2023-02-27T07:19:57.130Z,100672.72
2023-02-27T07:22:59.871Z,100673.66
2023-02-27T07:26:02.687Z,100678.84
2023-02-27T07:29:06.100Z,100683.47
2023-02-27T07:32:09.069Z,100688.78
2023-02-27T07:35:12.369Z,100699.75
2023-02-27T07:38:15.168Z,100709.06
2023-02-27T07:41:30.020Z,100704.25
2023-02-27T07:44:36.232Z,100719.63
2023-02-27T07:47:38.985Z,100713.91
2023-02-27T07:50:41.762Z,100720.66
2023-02-27T07:53:44.778Z,100718.63
2023-02-27T07:56:47.511Z,100718.09
2023-02-27T07:59:50.337Z,100733.66
2023-02-27T08:02:53.130Z,100734.34
2023-02-27T08:05:55.845Z,100732.94
2023-02-27T08:08:58.628Z,100732.81
2023-02-27T08:12:03.084Z,100751.06
2023-02-27T08:15:06.502Z,100744.50
2023-02-27T08:18:09.414Z,100750.75
2023-02-27T08:21:12.258Z,100735.44
2023-02-27T08:24:15.127Z,100738.44
2023-02-27T08:27:17.990Z,100739.09
2023-02-27T08:30:21.018Z,100735.72
2023-02-27T08:33:24.813Z,100746.81
2023-02-27T08:36:27.974Z,100749.50
2023-02-27T08:39:30.969Z,100751.41
2023-02-27T08:42:34.455Z,100750.28
2023-02-27T08:45:37.300Z,100763.03
2023-02-27T08:48:42.794Z,100753.81
2023-02-27T08:51:45.773Z,100762.34
2023-02-27T08:54:48.636Z,100760.28
2023-02-27T08:57:51.395Z,100758.91
2023-02-27T09:00:54.869Z,100764.16
2023-02-27T09:03:57.781Z,100770.34
2023-02-27T09:07:00.593Z,100773.31
2023-02-27T09:10:03.815Z,100779.06
2023-02-27T09:13:06.809Z,100785.38
2023-02-27T09:16:10.417Z,100781.84
2023-02-27T09:19:14.559Z,100791.16
2023-02-27T09:22:18.789Z,100795.00
2023-02-27T09:25:21.522Z,100791.53
2023-02-27T09:28:24.322Z,100796.34
2023-02-27T09:31:32.207Z,100794.09
2023-02-27T09:34:36.135Z,100790.47
2023-02-27T09:37:39.459Z,100787.75
2023-02-27T09:40:44.805Z,100792.72
2023-02-27T09:43:51.636Z,100793.72
2023-02-27T09:46:54.845Z,100801.25
2023-02-27T09:50:06.402Z,100807.91
2023-02-27T09:53:32.066Z,100800.09
2023-02-27T09:56:56.996Z,100806.34
2023-02-27T10:00:40.528Z,100805.06
2023-02-27T10:03:43.498Z,100808.69
2023-02-27T10:06:50.410Z,100808.88
2023-02-27T10:10:14.461Z,100798.56
2023-02-27T10:13:39.565Z,100801.97
2023-02-27T10:16:43.279Z,100807.28
2023-02-27T10:19:48.404Z,100805.34
2023-02-27T10:22:54.556Z,100795.84
2023-02-27T10:25:58.295Z,100794.00
2023-02-27T10:29:15.544Z,100805.91
2023-02-27T10:32:27.259Z,100810.94
2023-02-27T10:35:36.181Z,100809.38
2023-02-27T10:38:44.866Z,100806.63
2023-02-27T10:41:48.921Z,100812.81
2023-02-27T10:44:53.843Z,100803.78
2023-02-27T10:47:59.081Z,100813.50
2023-02-27T10:51:25.262Z,100798.91
2023-02-27T10:54:30.732Z,100797.03
2023-02-27T10:57:43.397Z,100796.44
2023-02-27T11:00:59.389Z,100798.47
2023-02-27T11:04:02.206Z,100796.63
2023-02-27T11:07:09.242Z,100797.50
2023-02-27T11:10:15.147Z,100793.03
2023-02-27T11:13:23.355Z,100792.53
2023-02-27T11:16:26.963Z,100786.75
2023-02-27T11:19:34.214Z,100791.78
2023-02-27T11:22:37.649Z,100808.69
2023-02-27T11:25:40.551Z,100814.13
2023-02-27T11:28:43.876Z,100816.66
2023-02-27T11:31:55.982Z,100806.63
2023-02-27T11:34:58.857Z,100816.81
2023-02-27T11:38:07.642Z,100821.34
2023-02-27T11:41:11.166Z,100813.16
2023-02-27T11:44:34.589Z,100819.00
2023-02-27T11:47:51.463Z,100817.56
2023-02-27T11:51:12.306Z,100814.00
2023-02-27T11:54:48.268Z,100800.53
2023-02-27T11:57:58.904Z,100808.94
2023-02-27T12:01:06.172Z,100811.72
2023-02-27T12:04:29.072Z,100804.09
2023-02-27T12:07:38.890Z,100796.03
2023-02-27T12:11:12.397Z,100798.34
2023-02-27T12:14:27.727Z,100800.41
2023-02-27T12:17:38.910Z,100798.00
2023-02-27T12:20:56.793Z,100812.81
2023-02-27T12:24:10.317Z,100806.38
2023-02-27T12:27:21.784Z,100813.22
2023-02-27T12:30:28.252Z,100811.59
2023-02-27T12:33:34.535Z,100817.72
2023-02-27T12:36:38.504Z,100817.03
2023-02-27T12:39:44.850Z,100827.34
2023-02-27T12:43:08.184Z,100824.63
2023-02-27T12:46:29.503Z,100822.19
2023-02-27T12:49:44.200Z,100834.53
2023-02-27T12:52:58.974Z,100829.94
2023-02-27T12:56:10.231Z,100825.16
2023-02-27T12:59:46.904Z,100825.94
2023-02-27T13:02:52.313Z,100825.38
2023-02-27T13:06:03.119Z,100843.88
2023-02-27T13:09:40.135Z,100829.59
2023-02-27T13:12:59.310Z,100825.09
2023-02-27T13:16:25.984Z,100826.72
2023-02-27T13:19:58.040Z,100827.13
2023-02-27T13:23:18.876Z,100825.97
2023-02-27T13:26:34.890Z,100821.25
2023-02-27T13:29:41.619Z,100819.84
2023-02-27T13:33:07.581Z,100817.03
2023-02-27T13:36:13.069Z,100817.72
2023-02-27T13:39:44.160Z,100822.38
2023-02-27T13:42:47.036Z,100822.00
2023-02-27T13:46:03.697Z,100813.75
2023-02-27T13:49:10.737Z,100817.53
2023-02-27T13:52:30.061Z,100819.38
2023-02-27T13:55:37.861Z,100831.22
2023-02-27T13:58:41.904Z,100827.81
2023-02-27T14:01:57.791Z,100843.50
2023-02-27T14:05:06.736Z,100852.84
2023-02-27T14:08:20.964Z,100849.25
2023-02-27T14:11:39.888Z,100858.84
2023-02-27T14:14:46.257Z,100855.59
2023-02-27T14:18:02.446Z,100854.06
2023-02-27T14:21:12.604Z,100858.91
2023-02-27T14:24:17.333Z,100864.88
2023-02-27T14:27:49.338Z,100851.75
2023-02-27T14:31:06.147Z,100865.25
2023-02-27T14:34:15.531Z,100866.72
2023-02-27T14:37:23.559Z,100863.03
2023-02-27T14:40:34.180Z,100877.06
2023-02-27T14:43:46.705Z,100862.63
2023-02-27T14:46:50.475Z,100841.88
2023-02-27T14:49:53.521Z,100828.50
2023-02-27T14:52:56.329Z,100858.53
2023-02-27T14:56:00.580Z,100845.34
2023-02-27T14:59:04.941Z,100864.81
2023-02-27T15:02:43.190Z,100864.13
2023-02-27T15:05:48.022Z,100856.53
2023-02-27T15:08:54.334Z,100879.22
2023-02-27T15:12:04.049Z,100868.81
2023-02-27T15:15:09.940Z,100862.63
2023-02-27T15:18:14.551Z,100864.16
2023-02-27T15:21:20.280Z,100870.69
2023-02-27T15:24:26.172Z,100871.38
2023-02-27T15:27:30.268Z,100878.28
2023-02-27T15:30:33.399Z,100882.69
2023-02-27T15:33:37.050Z,100885.34
2023-02-27T15:36:46.976Z,100898.03
2023-02-27T15:39:51.623Z,100898.06
2023-02-27T15:42:55.381Z,100899.88
2023-02-27T15:45:58.586Z,100896.03
2023-02-27T15:49:01.803Z,100887.25
2023-02-27T15:52:25.441Z,100892.66
2023-02-27T15:55:32.149Z,100901.66
2023-02-27T15:58:38.412Z,100905.94
2023-02-27T16:01:41.928Z,100903.84
2023-02-27T16:04:46.580Z,100917.84
2023-02-27T16:07:50.378Z,100918.78
2023-02-27T16:10:53.449Z,100923.88
2023-02-27T16:13:57.887Z,100924.72
2023-02-27T16:17:00.900Z,100921.13
2023-02-27T16:20:41.487Z,100920.84
2023-02-27T16:23:45.538Z,100927.16
2023-02-27T16:26:52.119Z,100931.34
2023-02-27T16:29:57.556Z,100923.09
2023-02-27T16:33:02.052Z,100921.59
2023-02-27T16:36:17.184Z,100925.75
2023-02-27T16:39:20.232Z,100919.16
2023-02-27T16:42:23.270Z,100927.22
2023-02-27T16:45:28.735Z,100940.66
2023-02-27T16:48:31.836Z,100946.72
2023-02-27T16:51:35.000Z,100948.56
2023-02-27T16:54:37.976Z,100955.03
2023-02-27T16:57:40.922Z,100947.47
2023-02-27T17:00:44.244Z,100957.00
2023-02-27T17:03:47.478Z,100960.81
2023-02-27T17:06:50.519Z,100959.59
2023-02-27T17:09:53.647Z,100966.97
2023-02-27T17:12:56.566Z,100978.66
2023-02-27T17:16:00.059Z,100978.44
2023-02-27T17:19:03.072Z,100988.09
2023-02-27T17:22:06.612Z,101002.06
2023-02-27T17:25:10.849Z,101007.88
2023-02-27T17:28:13.648Z,101008.19
2023-02-27T17:31:16.475Z,101024.31
2023-02-27T17:34:20.615Z,101015.16
2023-02-27T17:37:23.823Z,100998.13
2023-02-27T17:40:27.479Z,101017.78
2023-02-27T17:43:30.398Z,101012.75
2023-02-27T17:46:33.585Z,101009.13
2023-02-27T17:49:36.508Z,101009.44
2023-02-27T17:52:40.076Z,101010.47
2023-02-27T17:55:42.783Z,101016.41
2023-02-27T17:58:45.706Z,101009.06
2023-02-27T18:01:48.510Z,101028.53
2023-02-27T18:04:53.804Z,101030.41
2023-02-27T18:07:56.888Z,101023.50
2023-02-27T18:11:00.252Z,101031.94
2023-02-27T18:14:06.538Z,101037.28
2023-02-27T18:17:12.694Z,101054.16
2023-02-27T18:20:15.863Z,101057.63
2023-02-27T18:23:19.664Z,101050.41
2023-02-27T18:26:32.733Z,101049.88
2023-02-27T18:29:36.910Z,101061.09
2023-02-27T18:32:39.908Z,101053.59
2023-02-27T18:35:44.175Z,101056.06
2023-02-27T18:38:47.668Z,101055.75
2023-02-27T18:41:52.037Z,101062.50
2023-02-27T18:44:56.236Z,101066.44
2023-02-27T18:47:59.351Z,101069.44
2023-02-27T18:51:05.952Z,101065.03
2023-02-27T18:54:13.015Z,101070.59
2023-02-27T18:57:16.396Z,101078.50
2023-02-27T19:00:21.779Z,101074.16
2023-02-27T19:03:25.224Z,101083.88
2023-02-27T19:06:28.773Z,101082.97
2023-02-27T19:09:32.918Z,101084.19
2023-02-27T19:12:36.188Z,101077.75
2023-02-27T19:15:39.611Z,101082.75
2023-02-27T19:18:42.923Z,101087.34
2023-02-27T19:21:48.083Z,101093.84
2023-02-27T19:24:51.178Z,101095.00
2023-02-27T19:27:55.684Z,101091.28
2023-02-27T19:30:58.938Z,101110.16
2023-02-27T19:34:03.209Z,101111.03
2023-02-27T19:37:06.481Z,101113.00
2023-02-27T19:40:11.113Z,101114.94
2023-02-27T19:43:15.479Z,101116.22
2023-02-27T19:46:24.964Z,101120.34
2023-02-27T19:49:28.089Z,101135.63
2023-02-27T19:52:31.401Z,101134.94
2023-02-27T19:55:34.736Z,101131.22
2023-02-27T19:58:39.466Z,101133.94
2023-02-27T20:01:42.593Z,101136.34
2023-02-27T20:04:45.809Z,101140.44
2023-02-27T20:07:48.713Z,101139.72
2023-02-27T20:10:59.589Z,101130.28
2023-02-27T20:14:02.889Z,101148.34
2023-02-27T20:17:06.544Z,101143.88
2023-02-27T20:20:10.400Z,101146.28
2023-02-27T20:23:15.529Z,101146.78
2023-02-27T20:26:24.053Z,101153.19
2023-02-27T20:29:28.412Z,101153.97
2023-02-27T20:32:31.361Z,101162.69
2023-02-27T20:35:37.946Z,101154.69
2023-02-27T20:38:41.504Z,101149.38
2023-02-27T20:41:45.127Z,101159.16
2023-02-27T20:44:49.204Z,101171.56
2023-02-27T20:47:52.233Z,101163.06
2023-02-27T20:50:55.467Z,101171.44
2023-02-27T20:54:00.196Z,101170.00
2023-02-27T20:57:04.310Z,101169.13
2023-02-27T21:00:11.736Z,101176.47
2023-02-27T21:03:18.022Z,101172.16
2023-02-27T21:06:21.296Z,101174.00
2023-02-27T21:09:24.016Z,101171.13
2023-02-27T21:12:26.758Z,101180.59
2023-02-27T21:15:31.314Z,101168.22
2023-02-27T21:18:34.272Z,101182.56
2023-02-27T21:21:37.416Z,101164.31
2023-02-27T21:24:40.203Z,101171.50
2023-02-27T21:27:42.926Z,101178.28
2023-02-27T21:30:45.802Z,101177.06
2023-02-27T21:33:49.911Z,101179.25
2023-02-27T21:36:53.772Z,101174.41
2023-02-27T21:39:57.408Z,101179.47
2023-02-27T21:43:00.207Z,101183.16
2023-02-27T21:46:13.502Z,101178.16
2023-02-27T21:49:22.721Z,101184.88
2023-02-27T21:52:25.530Z,101179.75
2023-02-27T21:55:28.329Z,101174.19
2023-02-27T21:58:31.515Z,101184.56
2023-02-27T22:01:34.846Z,101197.91
2023-02-27T22:04:37.573Z,101193.41
2023-02-27T22:07:40.342Z,101197.63
2023-02-27T22:10:46.024Z,101192.38
2023-02-27T22:13:49.149Z,101205.19
2023-02-27T22:16:51.861Z,101187.91
2023-02-27T22:19:54.810Z,101210.56
2023-02-27T22:22:57.640Z,101214.38
2023-02-27T22:26:13.020Z,101213.28
2023-02-27T22:29:17.173Z,101225.94
2023-02-27T22:32:20.119Z,101231.00
2023-02-27T22:35:23.584Z,101231.47
2023-02-27T22:38:26.703Z,101235.69
2023-02-27T22:41:35.753Z,101240.81
2023-02-27T22:44:38.567Z,101240.72
2023-02-27T22:47:41.389Z,101243.75
2023-02-27T22:50:44.108Z,101256.00
2023-02-27T22:53:47.020Z,101257.00
2023-02-27T22:56:54.713Z,101262.22
2023-02-27T22:59:58.638Z,101270.09
2023-02-27T23:03:01.358Z,101280.69
2023-02-27T23:06:06.250Z,101281.81
2023-02-27T23:09:14.756Z,101277.94
2023-02-27T23:12:17.529Z,101280.88
2023-02-27T23:15:20.354Z,101285.94
2023-02-27T23:18:23.125Z,101294.63
2023-02-27T23:21:32.012Z,101294.44
2023-02-27T23:24:35.003Z,101293.78
2023-02-27T23:27:38.640Z,101307.84
2023-02-27T23:30:41.458Z,101291.97
2023-02-27T23:33:44.290Z,101305.66
2023-02-27T23:36:47.033Z,101305.34
2023-02-27T23:39:49.714Z,101312.03
2023-02-27T23:42:52.720Z,101311.88
2023-02-27T23:45:55.652Z,101307.03
2023-02-27T23:48:59.621Z,101309.03
2023-02-27T23:52:03.412Z,101308.22
2023-02-27T23:55:06.903Z,101312.19
2023-02-27T23:58:11.281Z,101305.09
